Time;durP1;ratioP1;P1;durP2;ratioP2;P2;SDS_P1;SDS_P2;PMS_P1;PMS_P2;Temp;Humidity;BMP_temperature;BMP_pressure;BME280_temperature;BME280_humidity;BME280_pressure;Samples;Min_cycle;Max_cycle;Signal;HPM_P1;HPM_P2
2021/10/01 00:02:15;;;;;;;53.95;28.67;;;;;;;;;;4976616;28;20431;-41
2021/10/01 00:04:41;;;;;;;94.68;55.58;;;;;;;;;;4976364;28;20436;-43
2021/10/01 00:07:09;;;;;;;92.80;59.83;;;;;;;;;;4976596;28;20038;-42
2021/10/01 00:09:35;;;;;;;36.20;23.27;;;;;;;;;;4976518;28;20078;-41
2021/10/01 00:12:02;;;;;;;32.47;19.27;;;;;;;;;;4976389;28;20029;-43
2021/10/01 00:14:28;;;;;;;60.55;33.88;;;;;;;;;;4976522;28;20065;-42
2021/10/01 00:16:55;;;;;;;49.60;26.75;;;;;;;;;;4976526;28;20023;-42
2021/10/01 00:19:21;;;;;;;49.28;26.15;;;;;;;;;;4976106;28;20027;-41
2021/10/01 00:21:47;;;;;;;60.90;31.63;;;;;;;;;;4976409;28;20022;-42
2021/10/01 00:24:14;;;;;;;46.13;24.67;;;;;;;;;;4975100;28;20078;-42
2021/10/01 00:26:41;;;;;;;57.35;32.05;;;;;;;;;;4976149;28;20070;-42
2021/10/01 00:29:07;;;;;;;64.43;34.40;;;;;;;;;;4976225;28;20023;-42
2021/10/01 00:31:36;;;;;;;86.20;46.63;;;;;;;;;;4975965;28;20030;-42
2021/10/01 00:34:03;;;;;;;37.22;21.75;;;;;;;;;;4975624;28;20075;-45
2021/10/01 00:36:29;;;;;;;31.42;18.52;;;;;;;;;;4976210;28;20491;-43
2021/10/01 00:38:58;;;;;;;46.75;25.30;;;;;;;;;;4976116;28;20413;-41
2021/10/01 00:41:24;;;;;;;35.78;22.00;;;;;;;;;;4975916;28;20026;-44
2021/10/01 00:43:51;;;;;;;39.90;21.27;;;;;;;;;;4975823;28;20443;-42
2021/10/01 00:46:17;;;;;;;40.92;25.25;;;;;;;;;;4975781;28;20502;-43
2021/10/01 00:48:47;;;;;;;45.60;27.88;;;;;;;;;;4975631;28;20114;-42
2021/10/01 00:51:13;;;;;;;39.25;23.00;;;;;;;;;;4975959;28;20055;-42
2021/10/01 00:53:40;;;;;;;36.25;20.80;;;;;;;;;;4975798;28;20041;-41
2021/10/01 00:56:06;;;;;;;43.67;24.80;;;;;;;;;;4975656;28;20027;-42
2021/10/01 00:58:32;;;;;;;37.88;26.13;;;;;;;;;;4975575;28;20034;-42
2021/10/01 01:01:09;;;;;;;24.42;15.20;;;;;;;;;;4975017;28;20441;-42
2021/10/01 01:03:44;;;;;;;26.23;16.20;;;;;;;;;;4975147;28;20069;-42
2021/10/01 01:06:10;;;;;;;20.70;13.90;;;;;;;;;;4975601;28;20393;-41
2021/10/01 01:08:42;;;;;;;38.92;21.02;;;;;;;;;;4975545;28;20023;-42
2021/10/01 01:11:15;;;;;;;43.85;25.88;;;;;;;;;;4975421;28;20039;-41
2021/10/01 01:13:46;;;;;;;71.78;40.42;;;;;;;;;;4975488;28;20494;-42
2021/10/01 01:16:18;;;;;;;45.10;28.67;;;;;;;;;;4973239;28;20129;-42
2021/10/01 01:18:46;;;;;;;29.50;19.50;;;;;;;;;;4975236;28;20030;-41
2021/10/01 01:21:28;;;;;;;41.45;24.83;;;;;;;;;;4975252;28;20122;-42
2021/10/01 01:23:54;;;;;;;34.47;22.23;;;;;;;;;;4975269;28;20058;-42
2021/10/01 01:26:23;;;;;;;33.40;23.52;;;;;;;;;;4975097;28;20535;-42
2021/10/01 01:28:55;;;;;;;37.83;24.38;;;;;;;;;;4974951;28;20027;-42
2021/10/01 01:31:36;;;;;;;39.60;24.65;;;;;;;;;;4975245;28;20106;-42
2021/10/01 01:34:03;;;;;;;51.83;33.95;;;;;;;;;;4974561;28;20051;-42
2021/10/01 01:36:30;;;;;;;58.92;35.30;;;;;;;;;;4974876;28;20035;-42
2021/10/01 01:38:57;;;;;;;28.13;17.90;;;;;;;;;;4975064;28;20022;-41
2021/10/01 01:41:24;;;;;;;25.27;17.58;;;;;;;;;;4975059;28;20042;-41
2021/10/01 01:43:52;;;;;;;21.95;14.70;;;;;;;;;;4974860;28;20042;-41
2021/10/01 01:46:18;;;;;;;30.67;21.05;;;;;;;;;;4974684;28;20019;-42
2021/10/01 01:48:45;;;;;;;38.58;24.02;;;;;;;;;;4974808;28;20145;-42
2021/10/01 01:51:12;;;;;;;26.40;19.15;;;;;;;;;;4974740;28;20022;-42
2021/10/01 01:53:38;;;;;;;23.02;15.82;;;;;;;;;;4974756;28;20027;-42
2021/10/01 01:56:06;;;;;;;43.67;26.40;;;;;;;;;;4974553;28;20101;-42
2021/10/01 01:58:32;;;;;;;22.67;16.55;;;;;;;;;;4974664;28;20102;-43
2021/10/01 02:00:58;;;;;;;24.30;15.25;;;;;;;;;;4974551;28;20110;-44
2021/10/01 02:03:25;;;;;;;28.33;16.73;;;;;;;;;;4974398;28;20039;-40
2021/10/01 02:05:52;;;;;;;29.73;17.45;;;;;;;;;;4974737;28;20046;-43
2021/10/01 02:08:18;;;;;;;31.90;17.83;;;;;;;;;;4974806;28;20031;-43
2021/10/01 02:10:45;;;;;;;29.00;18.45;;;;;;;;;;4974441;28;20029;-48
2021/10/01 02:13:11;;;;;;;40.30;23.02;;;;;;;;;;4973528;28;20467;-42
2021/10/01 02:15:38;;;;;;;27.85;18.40;;;;;;;;;;4974412;28;20117;-42
2021/10/01 02:18:05;;;;;;;31.92;19.38;;;;;;;;;;4974581;28;20027;-42
2021/10/01 02:20:33;;;;;;;31.92;20.33;;;;;;;;;;4974477;28;20019;-42
2021/10/01 02:23:00;;;;;;;37.00;20.33;;;;;;;;;;4974445;28;20042;-42
2021/10/01 02:28:17;;;;;;;41.97;25.88;;;;;;;;;;4975023;28;20045;-43
2021/10/01 02:30:44;;;;;;;40.45;23.83;;;;;;;;;;4974533;28;20566;-43
2021/10/01 02:33:14;;;;;;;31.52;20.90;;;;;;;;;;4974228;28;20031;-42
2021/10/01 02:35:40;;;;;;;37.55;20.08;;;;;;;;;;4972414;28;20049;-42
2021/10/01 02:38:06;;;;;;;32.58;20.10;;;;;;;;;;4974417;28;20031;-43
2021/10/01 02:40:33;;;;;;;43.95;26.88;;;;;;;;;;4974209;28;20027;-41
2021/10/01 02:42:59;;;;;;;45.63;25.50;;;;;;;;;;4974125;28;20062;-42
2021/10/01 02:45:25;;;;;;;38.50;21.38;;;;;;;;;;4974657;28;20379;-43
2021/10/01 02:47:51;;;;;;;33.20;19.90;;;;;;;;;;4974393;28;20391;-43
2021/10/01 02:50:19;;;;;;;29.20;19.73;;;;;;;;;;4974164;28;20031;-45
2021/10/01 02:52:51;;;;;;;35.97;21.30;;;;;;;;;;4974131;28;20464;-42
2021/10/01 02:55:23;;;;;;;28.92;17.80;;;;;;;;;;4974172;28;20106;-42
2021/10/01 02:57:55;;;;;;;31.92;20.13;;;;;;;;;;4974067;28;20019;-44
2021/10/01 03:00:21;;;;;;;33.75;21.30;;;;;;;;;;4974256;28;20446;-43
2021/10/01 03:02:49;;;;;;;33.03;22.33;;;;;;;;;;4974369;28;20035;-42
2021/10/01 03:05:15;;;;;;;30.70;20.15;;;;;;;;;;4973964;28;20555;-43
2021/10/01 03:07:43;;;;;;;36.30;24.17;;;;;;;;;;4974026;28;20058;-43
2021/10/01 03:10:10;;;;;;;27.48;18.45;;;;;;;;;;4973915;28;20023;-44
2021/10/01 03:12:38;;;;;;;38.72;21.80;;;;;;;;;;4974130;28;20502;-43
2021/10/01 03:15:05;;;;;;;35.85;22.63;;;;;;;;;;4974044;28;20106;-46
2021/10/01 03:17:32;;;;;;;29.55;18.90;;;;;;;;;;4974018;28;20122;-43
2021/10/01 03:19:58;;;;;;;28.67;19.35;;;;;;;;;;4973834;28;20471;-43
2021/10/01 03:22:31;;;;;;;36.08;22.33;;;;;;;;;;4973842;28;20027;-43
2021/10/01 03:24:57;;;;;;;27.98;19.25;;;;;;;;;;4977277;28;20038;-43
2021/10/01 03:27:24;;;;;;;25.80;17.55;;;;;;;;;;4977447;28;20053;-46
2021/10/01 03:29:50;;;;;;;27.38;19.17;;;;;;;;;;4959827;28;20073;-43
2021/10/01 03:32:20;;;;;;;32.92;20.20;;;;;;;;;;4977431;28;20026;-48
2021/10/01 03:34:46;;;;;;;25.13;18.27;;;;;;;;;;4977051;28;20058;-43
2021/10/01 03:37:12;;;;;;;34.63;21.35;;;;;;;;;;4977291;28;20041;-43
2021/10/01 03:39:39;;;;;;;30.40;18.85;;;;;;;;;;4977144;28;20022;-43
2021/10/01 03:42:06;;;;;;;28.10;19.17;;;;;;;;;;4977245;28;20030;-44
2021/10/01 03:44:32;;;;;;;26.88;18.10;;;;;;;;;;4977052;28;20074;-44
2021/10/01 03:46:59;;;;;;;34.90;20.20;;;;;;;;;;4976916;28;20467;-43
2021/10/01 03:49:25;;;;;;;30.92;19.52;;;;;;;;;;4976897;28;20108;-43
2021/10/01 03:51:51;;;;;;;33.08;19.63;;;;;;;;;;4976853;28;20030;-43
2021/10/01 03:54:17;;;;;;;32.45;20.17;;;;;;;;;;4977097;28;20476;-43
2021/10/01 03:56:43;;;;;;;27.60;17.70;;;;;;;;;;4976808;28;20026;-43
2021/10/01 03:59:11;;;;;;;27.08;18.17;;;;;;;;;;4977068;28;20039;-43
2021/10/01 04:01:37;;;;;;;30.13;18.85;;;;;;;;;;4976871;28;20042;-43
2021/10/01 04:04:03;;;;;;;27.10;18.10;;;;;;;;;;4976453;28;20517;-43
2021/10/01 04:06:29;;;;;;;33.15;17.88;;;;;;;;;;4976704;28;20046;-43
2021/10/01 04:08:55;;;;;;;33.78;19.73;;;;;;;;;;4976792;28;20383;-43
2021/10/01 04:11:22;;;;;;;30.55;17.40;;;;;;;;;;4976626;28;20022;-42
2021/10/01 04:13:48;;;;;;;27.13;18.35;;;;;;;;;;4976570;28;20057;-43
2021/10/01 04:16:15;;;;;;;36.88;20.83;;;;;;;;;;4976873;28;20030;-43
2021/10/01 04:18:41;;;;;;;37.95;22.42;;;;;;;;;;4976511;28;20031;-44
2021/10/01 04:21:07;;;;;;;31.98;21.02;;;;;;;;;;4976140;28;20464;-43
2021/10/01 04:23:33;;;;;;;36.42;20.38;;;;;;;;;;4976575;28;20031;-43
2021/10/01 04:25:59;;;;;;;28.70;19.88;;;;;;;;;;4976371;28;20718;-43
2021/10/01 04:28:25;;;;;;;35.60;19.35;;;;;;;;;;4976451;28;20054;-43
2021/10/01 04:30:51;;;;;;;29.17;18.17;;;;;;;;;;4976422;28;20073;-43
2021/10/01 04:33:21;;;;;;;30.98;17.70;;;;;;;;;;4976353;28;20033;-43
2021/10/01 04:35:48;;;;;;;25.77;17.10;;;;;;;;;;4975191;28;20078;-42
2021/10/01 04:38:14;;;;;;;30.30;18.23;;;;;;;;;;4976089;28;20463;-43
2021/10/01 04:40:40;;;;;;;31.50;18.70;;;;;;;;;;4976117;28;20019;-43
2021/10/01 04:43:06;;;;;;;28.75;18.27;;;;;;;;;;4976053;28;20030;-43
2021/10/01 04:45:33;;;;;;;28.05;18.52;;;;;;;;;;4976100;28;20026;-43
2021/10/01 04:48:04;;;;;;;40.70;24.23;;;;;;;;;;4975836;28;20027;-43
2021/10/01 04:50:30;;;;;;;32.75;23.73;;;;;;;;;;4975796;28;20057;-43
2021/10/01 04:52:56;;;;;;;40.90;22.52;;;;;;;;;;4975808;28;20037;-43
2021/10/01 04:55:22;;;;;;;32.75;20.63;;;;;;;;;;4976048;28;20031;-43
2021/10/01 04:57:50;;;;;;;29.50;19.65;;;;;;;;;;4975650;28;20468;-43
2021/10/01 05:00:16;;;;;;;30.50;19.65;;;;;;;;;;4975686;28;20041;-43
2021/10/01 05:02:42;;;;;;;25.70;16.88;;;;;;;;;;4975580;28;20430;-43
2021/10/01 05:05:08;;;;;;;29.98;18.88;;;;;;;;;;4975366;28;20034;-43
2021/10/01 05:07:36;;;;;;;26.48;17.40;;;;;;;;;;4958331;28;20403;-42
2021/10/01 05:10:03;;;;;;;26.73;16.83;;;;;;;;;;4975605;28;20550;-41
2021/10/01 05:12:29;;;;;;;27.33;16.90;;;;;;;;;;4975429;28;20069;-43
2021/10/01 05:14:56;;;;;;;38.40;19.48;;;;;;;;;;4975386;28;20538;-44
2021/10/01 05:17:25;;;;;;;45.50;29.67;;;;;;;;;;4975360;28;20391;-43
2021/10/01 05:19:51;;;;;;;44.95;29.50;;;;;;;;;;4975369;28;20026;-43
2021/10/01 05:22:18;;;;;;;77.65;53.60;;;;;;;;;;4975332;28;20365;-44
2021/10/01 05:24:44;;;;;;;69.13;46.08;;;;;;;;;;4975306;28;20035;-43
2021/10/01 05:27:11;;;;;;;67.20;43.08;;;;;;;;;;4975293;28;20459;-46
2021/10/01 05:29:37;;;;;;;57.72;36.85;;;;;;;;;;4975320;28;20018;-43
2021/10/01 05:32:03;;;;;;;49.40;26.65;;;;;;;;;;4975259;28;20503;-43
2021/10/01 05:34:29;;;;;;;51.08;27.25;;;;;;;;;;4974691;28;20148;-43
2021/10/01 05:36:56;;;;;;;59.95;35.80;;;;;;;;;;4975519;28;20061;-43
2021/10/01 05:39:22;;;;;;;51.63;28.05;;;;;;;;;;4974945;28;20027;-43
2021/10/01 05:41:50;;;;;;;40.47;22.88;;;;;;;;;;4975136;28;20029;-43
2021/10/01 05:44:17;;;;;;;41.83;24.98;;;;;;;;;;4974868;28;20030;-43
2021/10/01 05:46:45;;;;;;;48.30;26.75;;;;;;;;;;4974934;28;20114;-43
2021/10/01 05:49:23;;;;;;;62.75;35.33;;;;;;;;;;4974970;28;20026;-43
2021/10/01 05:51:53;;;;;;;58.17;29.73;;;;;;;;;;4974703;28;20503;-43
2021/10/01 05:54:23;;;;;;;52.40;31.97;;;;;;;;;;4974840;28;20051;-43
2021/10/01 05:56:52;;;;;;;53.33;30.52;;;;;;;;;;4974962;28;20027;-43
2021/10/01 05:59:20;;;;;;;36.67;22.70;;;;;;;;;;4974639;28;20023;-43
2021/10/01 06:01:46;;;;;;;55.20;30.45;;;;;;;;;;4974674;28;20031;-43
2021/10/01 06:04:13;;;;;;;45.40;26.65;;;;;;;;;;4974361;28;20483;-44
2021/10/01 06:06:42;;;;;;;40.80;23.83;;;;;;;;;;4974570;28;20110;-42
2021/10/01 06:09:13;;;;;;;43.03;25.48;;;;;;;;;;4974699;28;20026;-42
2021/10/01 06:11:39;;;;;;;47.28;27.65;;;;;;;;;;4974732;28;20372;-44
2021/10/01 06:14:06;;;;;;;43.53;28.30;;;;;;;;;;4974521;28;20125;-45
2021/10/01 06:16:33;;;;;;;47.53;30.58;;;;;;;;;;4974625;28;20031;-43
2021/10/01 06:19:02;;;;;;;76.28;47.17;;;;;;;;;;4974762;28;20429;-43
2021/10/01 06:21:28;;;;;;;75.15;45.72;;;;;;;;;;4974576;28;20026;-43
2021/10/01 06:23:55;;;;;;;89.97;52.83;;;;;;;;;;4974326;28;20085;-43
2021/10/01 06:26:23;;;;;;;77.70;48.83;;;;;;;;;;4974494;28;20097;-43
2021/10/01 06:28:49;;;;;;;74.18;42.30;;;;;;;;;;4974455;28;20174;-43
2021/10/01 06:31:15;;;;;;;39.17;25.15;;;;;;;;;;4974344;28;20122;-43
2021/10/01 06:33:42;;;;;;;39.80;23.73;;;;;;;;;;4956971;28;20093;-43
2021/10/01 06:36:08;;;;;;;33.78;21.63;;;;;;;;;;4974464;28;20042;-43
2021/10/01 06:38:34;;;;;;;39.85;24.02;;;;;;;;;;4974430;28;20033;-43
2021/10/01 06:41:00;;;;;;;42.20;29.17;;;;;;;;;;4974286;28;20022;-43
2021/10/01 06:43:28;;;;;;;47.65;31.30;;;;;;;;;;4974235;28;20403;-45
2021/10/01 06:45:56;;;;;;;36.42;23.70;;;;;;;;;;4974090;28;20023;-44
2021/10/01 07:21:56;;;;;;;39.10;22.58;;;;;;;;;;4899250;29;20116;-43
2021/10/01 08:18:40;;;;;;;17.80;11.02;;;;;;;;;;4976623;28;20042;-45
2021/10/01 08:21:06;;;;;;;32.63;16.90;;;;;;;;;;4976356;28;20031;-44
2021/10/01 08:23:34;;;;;;;18.02;11.27;;;;;;;;;;4976350;28;20498;-42
2021/10/01 08:26:00;;;;;;;24.42;15.15;;;;;;;;;;4976767;28;20038;-41
2021/10/01 08:28:27;;;;;;;17.45;10.60;;;;;;;;;;4976275;28;20073;-45
2021/10/01 08:30:53;;;;;;;23.80;13.52;;;;;;;;;;4976174;28;20058;-45
2021/10/01 08:33:19;;;;;;;37.42;19.02;;;;;;;;;;4976089;28;20075;-44
2021/10/01 08:35:45;;;;;;;21.85;12.18;;;;;;;;;;4976087;28;20510;-43
2021/10/01 08:38:13;;;;;;;28.75;14.82;;;;;;;;;;4976073;28;20110;-46
2021/10/01 08:40:39;;;;;;;21.77;15.25;;;;;;;;;;4976055;28;20048;-43
2021/10/01 08:43:06;;;;;;;25.27;14.30;;;;;;;;;;4975995;28;20149;-48
2021/10/01 08:45:32;;;;;;;22.15;13.65;;;;;;;;;;4975951;28;20475;-45
2021/10/01 08:48:03;;;;;;;26.38;14.13;;;;;;;;;;4975774;28;20031;-44
2021/10/01 08:50:30;;;;;;;73.63;43.10;;;;;;;;;;4975815;28;20034;-47
2021/10/01 08:52:59;;;;;;;58.15;34.53;;;;;;;;;;4975698;28;20464;-46
2021/10/01 08:55:26;;;;;;;37.05;17.98;;;;;;;;;;4975749;28;20027;-45
2021/10/01 08:57:53;;;;;;;46.67;24.27;;;;;;;;;;4975785;28;20095;-43
2021/10/01 09:00:19;;;;;;;32.15;18.42;;;;;;;;;;4975491;28;20027;-43
2021/10/01 09:02:46;;;;;;;27.33;15.43;;;;;;;;;;4975490;28;20090;-48
2021/10/01 09:05:12;;;;;;;22.05;11.63;;;;;;;;;;4975573;28;20042;-45
2021/10/01 09:07:39;;;;;;;20.70;11.88;;;;;;;;;;4975775;28;20046;-52
2021/10/01 09:10:09;;;;;;;82.18;14.05;;;;;;;;;;4975497;28;20031;-50
2021/10/01 09:12:35;;;;;;;28.50;12.30;;;;;;;;;;4975430;28;20026;-49
2021/10/01 09:15:02;;;;;;;35.63;12.13;;;;;;;;;;4975197;28;20034;-49
2021/10/01 09:17:29;;;;;;;20.67;9.93;;;;;;;;;;4975440;28;20380;-50
2021/10/01 09:19:56;;;;;;;20.92;11.18;;;;;;;;;;4975272;28;20022;-53
2021/10/01 09:22:32;;;;;;;22.13;10.18;;;;;;;;;;4974826;28;20027;-51
2021/10/01 09:25:10;;;;;;;18.30;10.20;;;;;;;;;;4975151;28;20030;-48
2021/10/01 09:27:37;;;;;;;15.77;10.10;;;;;;;;;;4975069;28;20033;-47
2021/10/01 09:30:04;;;;;;;22.35;13.65;;;;;;;;;;4975058;28;20062;-48
2021/10/01 09:32:31;;;;;;;34.70;20.63;;;;;;;;;;4975134;28;20025;-49
2021/10/01 09:34:57;;;;;;;45.35;24.98;;;;;;;;;;4974923;28;20058;-48
2021/10/01 09:37:30;;;;;;;45.17;33.85;;;;;;;;;;4975005;28;20031;-46
2021/10/01 09:40:02;;;;;;;128.32;91.32;;;;;;;;;;4974843;28;20038;-53
2021/10/01 09:42:33;;;;;;;36.67;18.27;;;;;;;;;;4974801;28;20026;-51
2021/10/01 09:45:05;;;;;;;24.52;12.25;;;;;;;;;;4974667;28;20506;-49
2021/10/01 09:47:32;;;;;;;132.52;85.43;;;;;;;;;;4974865;28;20077;-52
2021/10/01 09:50:03;;;;;;;30.25;16.67;;;;;;;;;;4974751;28;20034;-52
2021/10/01 09:52:46;;;;;;;37.83;19.63;;;;;;;;;;4974768;28;20060;-54
2021/10/01 09:55:16;;;;;;;32.15;19.73;;;;;;;;;;4974742;28;20026;-53
2021/10/01 09:58:01;;;;;;;98.03;66.22;;;;;;;;;;4974695;28;20522;-56
2021/10/01 10:00:44;;;;;;;23.42;14.07;;;;;;;;;;4974844;28;20023;-48
2021/10/01 10:03:14;;;;;;;42.47;25.85;;;;;;;;;;4974452;28;20086;-54
2021/10/01 10:06:02;;;;;;;29.17;14.63;;;;;;;;;;4974534;28;20037;-49
2021/10/01 10:08:28;;;;;;;16.95;9.23;;;;;;;;;;4974540;28;20045;-54
2021/10/01 10:10:55;;;;;;;69.90;43.25;;;;;;;;;;4974445;28;20038;-55
2021/10/01 10:13:38;;;;;;;60.25;25.52;;;;;;;;;;4974602;28;20105;-57
2021/10/01 10:16:05;;;;;;;37.33;15.45;;;;;;;;;;4974727;28;20110;-55
2021/10/01 10:18:31;;;;;;;35.35;22.70;;;;;;;;;;4974576;28;20149;-60
2021/10/01 10:20:58;;;;;;;36.92;21.65;;;;;;;;;;4974554;28;20030;-57
2021/10/01 10:23:24;;;;;;;106.47;56.60;;;;;;;;;;4974522;28;20391;-56
2021/10/01 10:25:50;;;;;;;137.50;94.45;;;;;;;;;;4974492;28;20038;-56
2021/10/01 10:28:16;;;;;;;33.65;19.95;;;;;;;;;;4974528;28;20030;-52
2021/10/01 10:30:42;;;;;;;19.95;10.48;;;;;;;;;;4974227;28;20050;-56
2021/10/01 10:33:28;;;;;;;18.98;9.73;;;;;;;;;;4974783;28;20035;-56
2021/10/01 10:35:54;;;;;;;32.28;11.32;;;;;;;;;;4978175;28;20081;-58
2021/10/01 10:38:40;;;;;;;20.35;10.00;;;;;;;;;;4978293;28;20027;-56
2021/10/01 10:41:26;;;;;;;29.75;14.40;;;;;;;;;;4978087;28;20022;-53
2021/10/01 10:43:54;;;;;;;22.95;11.95;;;;;;;;;;4978158;28;20022;-52
2021/10/01 10:46:47;;;;;;;16.75;10.25;;;;;;;;;;4978339;28;20050;-56
2021/10/01 10:49:16;;;;;;;17.92;9.02;;;;;;;;;;4974798;28;20113;-54
2021/10/01 10:51:54;;;;;;;16.88;8.15;;;;;;;;;;4977801;28;20034;-52
2021/10/01 10:54:20;;;;;;;21.08;8.68;;;;;;;;;;4978103;28;20110;-50
2021/10/01 10:56:46;;;;;;;20.13;9.77;;;;;;;;;;4977943;28;20027;-50
2021/10/01 10:59:28;;;;;;;12.20;7.75;;;;;;;;;;4978023;28;20110;-50
2021/10/01 11:02:14;;;;;;;17.85;7.35;;;;;;;;;;4977876;28;20049;-52
2021/10/01 11:04:43;;;;;;;139.63;108.93;;;;;;;;;;4977700;28;20483;-49
2021/10/01 11:07:12;;;;;;;43.28;17.83;;;;;;;;;;4977951;28;20155;-49
2021/10/01 11:09:39;;;;;;;74.28;50.95;;;;;;;;;;4977727;28;20395;-49
2021/10/01 11:12:22;;;;;;;25.48;15.30;;;;;;;;;;4977603;28;20027;-45
2021/10/01 11:15:08;;;;;;;16.92;9.00;;;;;;;;;;4977443;28;20509;-45
2021/10/01 11:17:34;;;;;;;18.02;8.07;;;;;;;;;;4977459;28;20048;-52
2021/10/01 11:20:00;;;;;;;14.45;8.27;;;;;;;;;;4977548;28;20055;-48
2021/10/01 11:22:39;;;;;;;22.38;10.50;;;;;;;;;;4977519;28;20419;-54
2021/10/01 11:25:05;;;;;;;19.00;10.23;;;;;;;;;;4977262;28;20050;-54
2021/10/01 11:27:32;;;;;;;31.63;15.18;;;;;;;;;;4977382;28;20015;-55
2021/10/01 11:30:01;;;;;;;72.88;38.63;;;;;;;;;;4977287;28;20023;-57
2021/10/01 11:32:28;;;;;;;35.63;19.58;;;;;;;;;;4977426;28;20019;-55
2021/10/01 11:34:58;;;;;;;40.63;20.67;;;;;;;;;;4977152;28;20098;-57
2021/10/01 11:37:27;;;;;;;67.18;37.20;;;;;;;;;;4977104;28;20039;-54
2021/10/01 11:39:54;;;;;;;14.80;8.63;;;;;;;;;;4977120;28;20077;-53
2021/10/01 11:42:25;;;;;;;23.50;10.02;;;;;;;;;;4977002;28;20038;-55
2021/10/01 11:44:51;;;;;;;17.23;8.32;;;;;;;;;;4976684;28;20085;-60
2021/10/01 11:47:17;;;;;;;22.63;9.75;;;;;;;;;;4977129;28;20023;-49
2021/10/01 11:49:53;;;;;;;16.02;7.93;;;;;;;;;;4976976;28;20046;-47
2021/10/01 11:52:21;;;;;;;17.55;7.45;;;;;;;;;;4978653;28;20030;-55
2021/10/01 11:54:51;;;;;;;15.38;7.05;;;;;;;;;;4979453;28;20114;-52
2021/10/01 11:57:17;;;;;;;15.07;7.40;;;;;;;;;;4982450;28;20077;-53
2021/10/01 12:00:02;;;;;;;25.67;7.45;;;;;;;;;;4981467;28;20033;-52
2021/10/01 12:02:28;;;;;;;58.20;35.65;;;;;;;;;;4979339;28;20542;-51
2021/10/01 12:04:54;;;;;;;14.82;7.75;;;;;;;;;;4981767;28;20401;-52
2021/10/01 12:07:20;;;;;;;20.13;7.93;;;;;;;;;;4979564;28;20042;-43
2021/10/01 12:10:08;;;;;;;22.25;9.98;;;;;;;;;;4977453;28;20472;-46
2021/10/01 12:12:35;;;;;;;24.77;11.63;;;;;;;;;;4980636;28;20117;-46
2021/10/01 12:15:01;;;;;;;42.25;18.42;;;;;;;;;;4979208;28;20044;-45
2021/10/01 12:17:27;;;;;;;41.55;24.40;;;;;;;;;;4979085;28;20029;-45
2021/10/01 12:19:58;;;;;;;24.25;10.93;;;;;;;;;;4979528;28;20077;-44
2021/10/01 12:22:29;;;;;;;16.95;9.10;;;;;;;;;;4980339;28;20498;-47
2021/10/01 12:24:56;;;;;;;14.07;9.00;;;;;;;;;;4979797;28;20035;-47
2021/10/01 12:27:40;;;;;;;13.90;9.13;;;;;;;;;;4978759;28;20038;-43
2021/10/01 12:30:07;;;;;;;17.38;9.43;;;;;;;;;;4979378;28;20058;-44
2021/10/01 12:32:34;;;;;;;925.63;313.48;;;;;;;;;;4981053;28;20490;-44
2021/10/01 12:35:00;;;;;;;39.63;25.58;;;;;;;;;;4983445;28;20043;-47
2021/10/01 12:37:31;;;;;;;82.55;54.33;;;;;;;;;;4978369;28;20082;-49
2021/10/01 12:39:59;;;;;;;42.10;27.07;;;;;;;;;;4979307;28;20025;-48
2021/10/01 12:42:32;;;;;;;36.95;17.17;;;;;;;;;;4980163;28;20054;-47
2021/10/01 12:45:00;;;;;;;21.08;12.13;;;;;;;;;;4978452;28;20368;-49
2021/10/01 12:47:26;;;;;;;112.38;59.88;;;;;;;;;;4978486;28;20482;-46
2021/10/01 12:50:05;;;;;;;91.13;38.42;;;;;;;;;;4978890;28;20382;-49
2021/10/01 12:52:31;;;;;;;37.95;20.75;;;;;;;;;;4980712;28;20489;-48
2021/10/01 12:55:00;;;;;;;29.95;15.43;;;;;;;;;;4978847;28;20340;-47
2021/10/01 12:57:28;;;;;;;26.33;11.45;;;;;;;;;;4977633;28;20033;-45
2021/10/01 12:59:56;;;;;;;15.48;10.57;;;;;;;;;;4978914;28;20546;-44
2021/10/01 13:02:29;;;;;;;38.50;21.10;;;;;;;;;;4979511;28;20110;-46
2021/10/01 13:04:56;;;;;;;24.80;13.02;;;;;;;;;;4978606;28;20130;-48
2021/10/01 13:07:33;;;;;;;14.95;9.13;;;;;;;;;;4978429;28;20061;-45
2021/10/01 13:10:17;;;;;;;67.65;39.85;;;;;;;;;;4978657;28;20033;-46
2021/10/01 13:12:48;;;;;;;357.48;236.57;;;;;;;;;;4980093;28;20030;-47
2021/10/01 13:15:17;;;;;;;21.48;13.57;;;;;;;;;;4978105;28;20042;-48
2021/10/01 13:17:44;;;;;;;22.65;10.20;;;;;;;;;;4977926;28;20476;-56
2021/10/01 13:20:11;;;;;;;15.05;8.65;;;;;;;;;;4978475;28;20026;-51
2021/10/01 13:22:57;;;;;;;15.18;8.23;;;;;;;;;;4978279;28;20030;-45
2021/10/01 13:25:27;;;;;;;13.88;8.75;;;;;;;;;;4972218;28;20387;-55
2021/10/01 13:27:54;;;;;;;19.13;9.63;;;;;;;;;;4979272;28;20045;-52
2021/10/01 13:30:21;;;;;;;22.63;10.15;;;;;;;;;;4975146;28;20097;-46
2021/10/01 13:32:47;;;;;;;12.75;8.65;;;;;;;;;;4980683;28;20030;-44
2021/10/01 13:35:15;;;;;;;15.35;8.82;;;;;;;;;;4977960;28;20514;-55
2021/10/01 13:37:44;;;;;;;17.27;9.25;;;;;;;;;;4978161;28;20042;-48
2021/10/01 13:40:11;;;;;;;15.98;9.77;;;;;;;;;;4973784;28;20091;-46
2021/10/01 13:42:37;;;;;;;19.08;9.20;;;;;;;;;;4974646;28;20035;-50
2021/10/01 13:45:04;;;;;;;14.88;8.27;;;;;;;;;;4974668;28;20081;-57
2021/10/01 13:47:33;;;;;;;17.40;9.23;;;;;;;;;;4974657;28;20460;-46
2021/10/01 13:50:02;;;;;;;16.63;10.05;;;;;;;;;;4974637;28;20038;-47
2021/10/01 13:52:28;;;;;;;23.20;9.65;;;;;;;;;;4974614;28;20497;-48
2021/10/01 13:54:54;;;;;;;16.52;8.88;;;;;;;;;;4974687;28;20027;-47
2021/10/01 13:57:21;;;;;;;15.48;9.23;;;;;;;;;;4974553;28;20029;-46
2021/10/01 13:59:49;;;;;;;15.32;9.05;;;;;;;;;;4974547;28;20111;-46
2021/10/01 14:02:15;;;;;;;20.40;9.25;;;;;;;;;;4966678;28;20395;-47
2021/10/01 14:04:41;;;;;;;19.13;10.25;;;;;;;;;;4974178;28;20038;-45
2021/10/01 14:07:07;;;;;;;15.85;10.20;;;;;;;;;;4974195;28;20052;-49
2021/10/01 14:09:33;;;;;;;13.93;9.10;;;;;;;;;;4974494;28;20022;-47
2021/10/01 14:11:59;;;;;;;18.08;10.02;;;;;;;;;;4974488;28;20463;-47
2021/10/01 14:14:25;;;;;;;19.75;10.10;;;;;;;;;;4974666;28;20106;-57
2021/10/01 14:16:51;;;;;;;16.77;10.48;;;;;;;;;;4974501;28;20135;-45
2021/10/01 14:19:20;;;;;;;22.10;9.95;;;;;;;;;;4974339;28;20034;-45
2021/10/01 14:21:46;;;;;;;17.23;10.05;;;;;;;;;;4974231;28;20060;-54
2021/10/01 14:24:12;;;;;;;17.55;10.30;;;;;;;;;;4974415;28;20130;-54
2021/10/01 14:26:38;;;;;;;15.48;10.15;;;;;;;;;;4974957;28;20419;-46
2021/10/01 14:29:04;;;;;;;17.73;10.10;;;;;;;;;;4977189;28;20015;-46
2021/10/01 14:31:31;;;;;;;34.40;17.75;;;;;;;;;;4976160;28;20031;-46
2021/10/01 14:33:58;;;;;;;20.83;11.90;;;;;;;;;;4974281;28;20582;-46
2021/10/01 14:36:24;;;;;;;22.27;10.40;;;;;;;;;;4974254;28;20039;-46
2021/10/01 14:38:50;;;;;;;26.77;13.25;;;;;;;;;;4974134;28;20097;-49
2021/10/01 14:41:16;;;;;;;20.95;10.65;;;;;;;;;;4974456;28;20027;-46
2021/10/01 14:43:43;;;;;;;24.38;13.05;;;;;;;;;;4974200;28;20514;-47
2021/10/01 14:46:09;;;;;;;21.77;13.55;;;;;;;;;;4974222;28;20035;-45
2021/10/01 14:48:39;;;;;;;19.60;10.68;;;;;;;;;;4974415;28;20023;-46
2021/10/01 14:51:05;;;;;;;20.13;11.10;;;;;;;;;;4974167;28;20034;-46
2021/10/01 14:53:31;;;;;;;22.63;11.95;;;;;;;;;;4974026;28;20479;-46
2021/10/01 14:55:58;;;;;;;32.08;14.85;;;;;;;;;;4974296;28;20046;-45
2021/10/01 14:58:26;;;;;;;17.52;11.10;;;;;;;;;;4974182;28;20582;-51
2021/10/01 15:00:52;;;;;;;42.00;18.92;;;;;;;;;;4972582;28;20042;-57
2021/10/01 15:03:19;;;;;;;23.50;11.93;;;;;;;;;;4974051;28;20069;-47
2021/10/01 15:05:49;;;;;;;19.38;10.30;;;;;;;;;;4974110;28;20042;-46
2021/10/01 15:08:17;;;;;;;26.35;9.82;;;;;;;;;;4974152;28;20019;-46
2021/10/01 15:10:43;;;;;;;19.35;11.85;;;;;;;;;;4974261;28;20023;-45
2021/10/01 15:13:10;;;;;;;18.15;9.73;;;;;;;;;;4974140;28;20023;-46
2021/10/01 15:15:36;;;;;;;25.38;10.57;;;;;;;;;;4973875;28;20019;-49
2021/10/01 15:18:02;;;;;;;19.25;9.25;;;;;;;;;;4973959;28;20122;-44
2021/10/01 15:20:28;;;;;;;18.83;10.43;;;;;;;;;;4976422;28;20023;-45
2021/10/01 15:22:54;;;;;;;21.23;9.93;;;;;;;;;;4977363;28;20085;-46
2021/10/01 15:25:20;;;;;;;24.58;13.25;;;;;;;;;;4977520;28;20039;-44
2021/10/01 15:27:46;;;;;;;29.40;15.13;;;;;;;;;;4977470;28;20058;-44
2021/10/01 15:30:14;;;;;;;19.98;10.07;;;;;;;;;;4977369;28;20031;-46
2021/10/01 15:32:46;;;;;;;18.23;9.45;;;;;;;;;;4977441;28;20026;-45
2021/10/01 15:35:19;;;;;;;23.75;12.30;;;;;;;;;;4977255;28;20156;-46
2021/10/01 15:37:46;;;;;;;23.85;9.52;;;;;;;;;;4977184;28;20039;-44
2021/10/01 15:40:13;;;;;;;37.97;16.10;;;;;;;;;;4977276;28;20077;-44
2021/10/01 15:42:40;;;;;;;24.38;12.07;;;;;;;;;;4977244;28;20027;-46
2021/10/01 15:45:07;;;;;;;22.17;11.75;;;;;;;;;;4977354;28;20038;-44
2021/10/01 15:47:33;;;;;;;14.85;9.32;;;;;;;;;;4977031;28;20058;-48
2021/10/01 15:49:59;;;;;;;16.15;8.43;;;;;;;;;;4976969;28;20026;-44
2021/10/01 15:52:25;;;;;;;21.23;7.75;;;;;;;;;;4959677;28;20023;-44
2021/10/01 15:54:51;;;;;;;17.55;7.15;;;;;;;;;;4976941;28;20097;-43
2021/10/01 15:57:20;;;;;;;11.88;6.53;;;;;;;;;;4959482;28;20035;-43